createdAt,value
2018-08-25T00:01:17.716Z,97917.18
2018-08-25T00:03:47.711Z,97914.86
2018-08-25T00:06:16.503Z,97910.16
2018-08-25T00:08:46.977Z,97908.45
2018-08-25T00:11:15.612Z,97905.25
2018-08-25T00:13:44.570Z,97905.64
2018-08-25T00:16:13.743Z,97900.51
2018-08-25T00:18:42.647Z,97896.61
2018-08-25T00:21:11.851Z,97898.91
2018-08-25T00:23:41.145Z,97887.92
2018-08-25T00:26:10.378Z,97890.41
2018-08-25T00:28:40.015Z,97882.09
2018-08-25T00:31:13.973Z,97882.80
2018-08-25T00:33:42.817Z,97889.70
2018-08-25T00:36:11.639Z,97887.15
2018-08-25T00:38:40.449Z,97884.02
2018-08-25T00:41:09.698Z,97881.27
2018-08-25T00:43:38.402Z,97880.23
2018-08-25T00:46:08.071Z,97886.29
2018-08-25T00:48:37.885Z,97885.07
2018-08-25T00:51:06.862Z,97883.58
2018-08-25T00:53:36.228Z,97879.26
2018-08-25T00:56:04.952Z,97880.13
2018-08-25T00:58:34.450Z,97881.11
2018-08-25T01:01:03.849Z,97888.32
2018-08-25T01:03:34.048Z,97892.09
2018-08-25T01:06:03.188Z,97886.97
2018-08-25T01:08:32.379Z,97899.47
2018-08-25T01:11:01.991Z,97898.50
2018-08-25T01:13:30.837Z,97902.45
2018-08-25T01:15:59.614Z,97903.31
2018-08-25T01:18:28.294Z,97893.83
2018-08-25T01:20:57.654Z,97895.73
2018-08-25T01:23:26.358Z,97892.91
2018-08-25T01:25:54.964Z,97891.47
2018-08-25T01:28:23.670Z,97886.69
2018-08-25T01:30:52.470Z,97883.49
2018-08-25T01:33:21.496Z,97881.65
2018-08-25T01:35:50.098Z,97882.95
2018-08-25T01:38:19.564Z,97879.31
2018-08-25T01:40:48.323Z,97884.52
2018-08-25T01:43:17.007Z,97887.78
2018-08-25T01:45:45.792Z,97891.66
2018-08-25T01:48:14.795Z,97885.88
2018-08-25T01:50:43.561Z,97890.67
2018-08-25T01:53:12.473Z,97884.83
2018-08-25T01:55:41.374Z,97879.90
2018-08-25T01:58:10.216Z,97866.37
2018-08-25T02:00:39.207Z,97859.98
2018-08-25T02:03:08.162Z,97857.64
2018-08-25T02:05:36.944Z,97857.33
2018-08-25T02:08:06.108Z,97853.70
2018-08-25T02:10:35.115Z,97856.95
2018-08-25T02:13:04.304Z,97845.70
2018-08-25T02:15:33.200Z,97837.28
2018-08-25T02:18:01.727Z,97830.58
2018-08-25T02:20:31.204Z,97834.87
2018-08-25T02:23:00.374Z,97841.19
2018-08-25T02:25:29.108Z,97839.06
2018-08-25T02:27:57.820Z,97834.02
2018-08-25T02:30:27.044Z,97830.17
2018-08-25T02:32:55.963Z,97830.05
2018-08-25T02:35:24.703Z,97830.36
2018-08-25T02:37:53.746Z,97841.85
2018-08-25T02:40:22.765Z,97839.15
2018-08-25T02:42:51.379Z,97839.05
2018-08-25T02:45:23.301Z,97843.10
2018-08-25T02:47:52.871Z,97841.98
2018-08-25T02:50:22.264Z,97843.20
2018-08-25T02:52:52.188Z,97841.63
2018-08-25T02:55:21.181Z,97839.75
2018-08-25T02:57:50.500Z,97829.79
2018-08-25T03:00:19.317Z,97824.95
2018-08-25T03:02:48.118Z,97827.24
2018-08-25T03:05:16.834Z,97825.52
2018-08-25T03:07:45.588Z,97824.35
2018-08-25T03:10:14.705Z,97835.22
2018-08-25T03:12:43.276Z,97837.33
2018-08-25T03:15:12.168Z,97838.31
2018-08-25T03:17:40.845Z,97836.09
2018-08-25T03:20:09.581Z,97833.83
2018-08-25T03:22:38.606Z,97836.43
2018-08-25T03:25:07.619Z,97830.16
2018-08-25T03:27:36.284Z,97824.20
2018-08-25T03:30:05.336Z,97818.79
2018-08-25T03:32:34.308Z,97814.30
2018-08-25T03:35:03.819Z,97812.95
2018-08-25T03:37:32.621Z,97817.49
2018-08-25T03:40:01.246Z,97822.70
2018-08-25T03:42:29.890Z,97812.69
2018-08-25T03:44:58.713Z,97806.23
2018-08-25T03:47:28.752Z,97806.34
2018-08-25T03:49:58.119Z,97808.33
2018-08-25T03:52:27.461Z,97806.45
2018-08-25T03:54:55.992Z,97807.09
2018-08-25T03:57:24.744Z,97803.52
2018-08-25T03:59:53.463Z,97805.86
2018-08-25T04:02:22.317Z,97808.88
2018-08-25T04:04:52.169Z,97801.20
2018-08-25T04:07:20.873Z,97808.94
2018-08-25T04:09:49.660Z,97794.19
2018-08-25T04:12:18.949Z,97802.78
2018-08-25T04:14:48.052Z,97800.08
2018-08-25T04:17:16.774Z,97798.36
2018-08-25T04:19:45.980Z,97787.53
2018-08-25T04:22:15.470Z,97791.85
2018-08-25T04:24:44.370Z,97795.27
2018-08-25T04:27:12.989Z,97787.97
2018-08-25T04:29:41.599Z,97788.40
2018-08-25T04:32:11.199Z,97779.41
2018-08-25T04:34:39.953Z,97785.31
2018-08-25T04:37:09.445Z,97782.32
2018-08-25T04:39:38.335Z,97785.74
2018-08-25T04:42:07.050Z,97789.52
2018-08-25T04:44:36.564Z,97776.70
2018-08-25T04:47:05.305Z,97787.47
2018-08-25T04:49:34.069Z,97786.54
2018-08-25T04:52:02.941Z,97796.02
2018-08-25T04:54:31.675Z,97788.64
2018-08-25T04:57:00.435Z,97783.71
2018-08-25T05:00:53.581Z,97785.78
2018-08-25T05:03:22.301Z,97780.47
2018-08-25T05:05:52.544Z,97782.08
2018-08-25T05:08:21.248Z,97781.47
2018-08-25T05:10:50.419Z,97786.62
2018-08-25T05:13:19.477Z,97786.25
2018-08-25T05:15:48.144Z,97788.34
2018-08-25T05:18:17.185Z,97778.48
2018-08-25T05:20:46.201Z,97780.26
2018-08-25T05:23:15.603Z,97751.59
2018-08-25T05:25:44.864Z,97780.42
2018-08-25T05:28:13.502Z,97775.48
2018-08-25T05:30:42.204Z,97777.59
2018-08-25T05:33:11.719Z,97767.84
2018-08-25T05:35:41.981Z,97771.30
2018-08-25T05:38:10.881Z,97776.72
2018-08-25T05:40:40.100Z,97775.23
2018-08-25T05:43:08.701Z,97776.45
2018-08-25T05:45:37.481Z,97772.25
2018-08-25T05:48:06.400Z,97776.99
2018-08-25T05:50:35.944Z,97777.15
2018-08-25T05:53:04.781Z,97778.11
2018-08-25T05:55:33.344Z,97770.72
2018-08-25T05:58:01.991Z,97778.39
2018-08-25T06:00:30.871Z,97772.58
2018-08-25T06:02:59.599Z,97777.79
2018-08-25T06:05:28.376Z,97773.33
2018-08-25T06:07:57.246Z,97762.48
2018-08-25T06:10:25.875Z,97761.53
2018-08-25T06:12:54.943Z,97768.06
2018-08-25T06:15:25.244Z,97764.08
2018-08-25T06:17:54.033Z,97764.27
2018-08-25T06:20:22.802Z,97757.63
2018-08-25T06:22:52.756Z,97756.61
2018-08-25T06:25:22.074Z,97754.44
2018-08-25T06:27:50.750Z,97753.26
2018-08-25T06:30:20.178Z,97764.80
2018-08-25T06:32:48.825Z,97766.94
2018-08-25T06:35:17.699Z,97756.86
2018-08-25T06:37:47.107Z,97765.49
2018-08-25T06:40:16.297Z,97767.55
2018-08-25T06:42:45.027Z,97769.27
2018-08-25T06:45:13.942Z,97761.34
2018-08-25T06:47:42.795Z,97755.53
2018-08-25T06:50:12.565Z,97755.53
2018-08-25T06:52:41.825Z,97760.84
2018-08-25T06:55:10.696Z,97761.04
2018-08-25T06:57:39.401Z,97751.73
2018-08-25T07:00:08.656Z,97754.91
2018-08-25T07:02:37.507Z,97757.19
2018-08-25T07:05:07.100Z,97760.23
2018-08-25T07:07:36.344Z,97758.00
2018-08-25T07:10:05.132Z,97762.72
2018-08-25T07:12:35.385Z,97767.80
2018-08-25T07:15:05.576Z,97774.33
2018-08-25T07:17:34.438Z,97771.56
2018-08-25T07:20:03.202Z,97766.63
2018-08-25T07:22:32.357Z,97766.63
2018-08-25T07:25:01.280Z,97778.97
2018-08-25T07:27:29.837Z,97783.83
2018-08-25T07:29:58.639Z,97785.65
2018-08-25T07:32:28.173Z,97787.14
2018-08-25T07:34:57.078Z,97787.64
2018-08-25T07:41:39.345Z,97793.80
2018-08-25T07:44:08.305Z,97799.86
2018-08-25T07:46:38.933Z,97792.53
2018-08-25T07:49:07.812Z,97795.56
2018-08-25T07:51:36.739Z,97795.10
2018-08-25T07:54:06.245Z,97796.25
2018-08-25T07:56:35.219Z,97798.69
2018-08-25T07:59:03.928Z,97804.03
2018-08-25T08:01:33.621Z,97800.85
2018-08-25T08:04:03.836Z,97805.49
2018-08-25T08:06:33.116Z,97805.27
2018-08-25T08:09:02.065Z,97798.69
2018-08-25T08:11:32.033Z,97803.14
2018-08-25T08:14:00.712Z,97808.86
2018-08-25T08:16:29.503Z,97811.05
2018-08-25T08:18:58.661Z,97813.34
2018-08-25T08:21:27.721Z,97811.91
2018-08-25T08:23:57.180Z,97809.12
2018-08-25T08:26:26.215Z,97811.31
2018-08-25T08:28:55.328Z,97815.56
2018-08-25T08:31:24.922Z,97820.13
2018-08-25T08:33:53.901Z,97815.86
2018-08-25T08:36:22.729Z,97811.13
2018-08-25T08:38:51.427Z,97826.38
2018-08-25T08:41:20.133Z,97820.23
2018-08-25T08:43:48.755Z,97820.14
2018-08-25T08:46:23.075Z,97819.17
2018-08-25T08:48:51.760Z,97826.48
2018-08-25T08:51:21.040Z,97829.09
2018-08-25T08:53:50.590Z,97829.00
2018-08-25T08:56:19.987Z,97827.75
2018-08-25T08:58:48.672Z,97830.61
2018-08-25T09:01:17.587Z,97830.84
2018-08-25T09:03:46.587Z,97832.31
2018-08-25T09:06:15.740Z,97835.95
2018-08-25T09:08:45.089Z,97834.47
2018-08-25T09:11:14.240Z,97834.27
2018-08-25T09:13:44.165Z,97833.12
2018-08-25T09:16:13.656Z,97836.31
2018-08-25T09:18:42.439Z,97843.00
2018-08-25T09:21:11.256Z,97841.53
2018-08-25T09:23:40.015Z,97837.78
2018-08-25T09:26:08.767Z,97844.94
2018-08-25T09:28:38.292Z,97851.77
2018-08-25T09:31:07.987Z,97849.70
2018-08-25T09:33:37.228Z,97847.29
2018-08-25T09:36:07.942Z,97852.08
2018-08-25T09:42:16.736Z,97851.83
2018-08-25T09:44:45.497Z,97859.00
2018-08-25T09:47:15.633Z,97856.83
2018-08-25T09:49:44.391Z,97848.75
2018-08-25T09:52:13.188Z,97857.28
2018-08-25T09:54:42.157Z,97857.83
2018-08-25T09:57:11.771Z,97855.77
2018-08-25T09:59:40.643Z,97852.83
2018-08-25T10:02:09.368Z,97850.56
2018-08-25T10:04:38.083Z,97851.37
2018-08-25T10:07:07.271Z,97858.75
2018-08-25T10:09:36.423Z,97868.50
2018-08-25T10:12:05.695Z,97867.95
2018-08-25T10:14:34.912Z,97867.36
2018-08-25T10:17:03.783Z,97869.09
2018-08-25T10:19:32.513Z,97869.55
2018-08-25T10:22:03.013Z,97872.61
2018-08-25T10:24:31.728Z,97872.38
2018-08-25T10:27:00.767Z,97876.09
2018-08-25T10:29:30.322Z,97872.95
2018-08-25T10:31:59.197Z,97875.59
2018-08-25T10:34:28.067Z,97874.02
2018-08-25T10:36:56.971Z,97869.69
2018-08-25T10:39:26.570Z,97871.83
2018-08-25T10:41:55.515Z,97866.98
2018-08-25T10:44:24.368Z,97867.14
2018-08-25T10:46:53.531Z,97872.61
2018-08-25T10:49:22.238Z,97870.56
2018-08-25T10:51:51.354Z,97864.47
2018-08-25T10:54:20.485Z,97866.28
2018-08-25T10:56:49.860Z,97865.84
2018-08-25T10:59:18.902Z,97870.91
2018-08-25T11:01:48.612Z,97866.20
2018-08-25T11:04:17.456Z,97870.55
2018-08-25T11:06:47.247Z,97868.30
2018-08-25T11:09:15.895Z,97862.58
2018-08-25T11:11:45.131Z,97856.57
2018-08-25T11:14:14.987Z,97859.09
2018-08-25T11:16:44.467Z,97863.04
2018-08-25T11:19:14.032Z,97861.47
2018-08-25T11:21:43.021Z,97854.55
2018-08-25T11:24:12.821Z,97860.91
2018-08-25T11:26:42.373Z,97860.81
2018-08-25T11:29:11.759Z,97862.84
2018-08-25T11:31:40.562Z,97862.17
2018-08-25T11:34:09.297Z,97856.83
2018-08-25T11:36:38.389Z,97860.57
2018-08-25T11:39:10.143Z,97866.22
2018-08-25T11:41:39.159Z,97863.84
2018-08-25T11:44:08.022Z,97860.66
2018-08-25T11:46:36.838Z,97858.84
2018-08-25T11:49:06.643Z,97862.13
2018-08-25T11:51:35.286Z,97857.68
2018-08-25T11:54:03.998Z,97852.95
2018-08-25T11:56:34.015Z,97857.92
2018-08-25T11:59:02.866Z,97854.66
2018-08-25T12:01:33.094Z,97856.88
2018-08-25T12:04:01.876Z,97854.86
2018-08-25T12:06:30.919Z,97858.95
2018-08-25T12:09:00.072Z,97861.02
2018-08-25T12:11:28.761Z,97857.05
2018-08-25T12:13:57.547Z,97852.88
2018-08-25T12:16:27.021Z,97854.45
2018-08-25T12:18:56.418Z,97857.08
2018-08-25T12:21:25.364Z,97852.88
2018-08-25T12:23:54.590Z,97847.53
2018-08-25T12:26:23.723Z,97849.00
2018-08-25T12:28:52.744Z,97849.25
2018-08-25T12:31:22.207Z,97849.94
2018-08-25T12:33:52.354Z,97848.12
2018-08-25T12:36:21.688Z,97850.95
2018-08-25T12:38:51.188Z,97850.38
2018-08-25T12:41:21.752Z,97849.45
2018-08-25T12:43:50.438Z,97845.05
2018-08-25T12:46:19.377Z,97852.22
2018-08-25T12:48:48.908Z,97855.36
2018-08-25T12:51:17.523Z,97852.08
2018-08-25T12:53:47.073Z,97847.73
2018-08-25T12:56:16.981Z,97849.39
2018-08-25T12:58:47.124Z,97842.13
2018-08-25T13:01:15.892Z,97835.69
2018-08-25T13:03:44.642Z,97834.97
2018-08-25T13:06:14.122Z,97837.63
2018-08-25T13:08:43.346Z,97840.83
2018-08-25T13:11:12.042Z,97838.79
2018-08-25T13:13:41.090Z,97833.92
2018-08-25T13:16:11.280Z,97829.27
2018-08-25T13:18:40.019Z,97831.30
2018-08-25T13:21:08.667Z,97831.50
2018-08-25T13:23:37.789Z,97826.52
2018-08-25T13:26:06.839Z,97823.76
2018-08-25T13:28:35.596Z,97825.46
2018-08-25T13:31:04.566Z,97831.47
2018-08-25T13:33:34.894Z,97819.34
2018-08-25T13:36:04.818Z,97826.75
2018-08-25T13:38:33.968Z,97823.74
2018-08-25T13:41:03.362Z,97827.22
2018-08-25T13:43:32.554Z,97830.11
2018-08-25T13:46:01.658Z,97818.48
2018-08-25T13:48:31.447Z,97824.72
2018-08-25T13:51:00.360Z,97824.69
2018-08-25T13:53:28.970Z,97821.07
2018-08-25T13:55:57.852Z,97822.38
2018-08-25T13:58:26.947Z,97824.80
2018-08-25T14:00:56.464Z,97830.19
2018-08-25T14:03:26.238Z,97829.81
2018-08-25T14:05:56.095Z,97829.11
2018-08-25T14:08:25.829Z,97837.17
2018-08-25T14:10:55.137Z,97825.92
2018-08-25T14:13:24.155Z,97831.50
2018-08-25T14:15:54.152Z,97825.16
2018-08-25T14:18:26.198Z,97821.07
2018-08-25T14:20:55.807Z,97824.59
2018-08-25T14:23:25.316Z,97828.91
2018-08-25T14:25:54.138Z,97829.71
2018-08-25T14:28:23.336Z,97828.10
2018-08-25T14:30:53.012Z,97828.45
2018-08-25T14:33:21.973Z,97826.16
2018-08-25T14:35:50.778Z,97825.12
2018-08-25T14:38:19.943Z,97824.12
2018-08-25T14:40:49.640Z,97833.33
2018-08-25T14:43:18.860Z,97834.02
2018-08-25T14:45:47.540Z,97827.66
2018-08-25T14:48:16.360Z,97828.79
2018-08-25T14:50:46.162Z,97826.63
2018-08-25T14:53:15.018Z,97825.84
2018-08-25T14:55:44.191Z,97823.77
2018-08-25T14:58:15.101Z,97818.09
2018-08-25T15:00:44.334Z,97824.69
2018-08-25T15:03:14.158Z,97824.55
2018-08-25T15:05:42.917Z,97823.70
2018-08-25T15:08:12.602Z,97827.38
2018-08-25T15:10:42.453Z,97822.03
2018-08-25T15:13:12.457Z,97826.27
2018-08-25T15:15:41.229Z,97828.52
2018-08-25T15:18:09.985Z,97828.80
2018-08-25T15:20:39.006Z,97831.45
2018-08-25T15:23:08.222Z,97833.41
2018-08-25T15:25:37.685Z,97831.95
2018-08-25T15:28:06.976Z,97832.22
2018-08-25T15:30:35.833Z,97830.41
2018-08-25T15:33:04.490Z,97832.17
2018-08-25T15:35:34.008Z,97836.47
2018-08-25T15:38:02.803Z,97832.88
2018-08-25T15:40:31.683Z,97832.88
2018-08-25T15:43:00.554Z,97840.42
2018-08-25T15:45:29.379Z,97843.03
2018-08-25T15:47:58.621Z,97845.53
2018-08-25T15:50:27.343Z,97847.25
2018-08-25T15:52:56.684Z,97854.76
2018-08-25T15:55:25.368Z,97847.60
2018-08-25T15:57:56.519Z,97850.27
2018-08-25T16:00:25.250Z,97848.64
2018-08-25T16:02:53.888Z,97851.97
2018-08-25T16:05:22.903Z,97849.97
2018-08-25T16:07:53.418Z,97850.84
2018-08-25T16:10:22.408Z,97850.53
2018-08-25T16:12:52.535Z,97851.08
2018-08-25T16:15:21.569Z,97850.16
2018-08-25T16:17:51.137Z,97848.36
2018-08-25T16:20:20.578Z,97851.76
2018-08-25T16:22:49.941Z,97857.91
2018-08-25T16:25:19.382Z,97852.22
2018-08-25T16:27:49.812Z,97861.66
2018-08-25T16:30:19.115Z,97864.62
2018-08-25T16:32:48.464Z,97856.55
2018-08-25T16:35:17.289Z,97865.61
2018-08-25T16:37:46.082Z,97856.66
2018-08-25T16:40:16.014Z,97858.58
2018-08-25T16:42:45.240Z,97860.53
2018-08-25T16:45:14.607Z,97862.67
2018-08-25T16:47:43.820Z,97858.58
2018-08-25T16:50:12.738Z,97862.89
2018-08-25T16:52:42.119Z,97868.58
2018-08-25T16:55:11.514Z,97862.19
2018-08-25T16:57:40.214Z,97869.00
2018-08-25T17:00:11.167Z,97862.08
2018-08-25T17:02:40.050Z,97861.23
2018-08-25T17:05:09.100Z,97862.83
2018-08-25T17:07:39.620Z,97861.55
2018-08-25T17:10:08.624Z,97862.46
2018-08-25T17:12:37.315Z,97862.38
2018-08-25T17:21:41.212Z,97859.38
2018-08-25T17:24:10.429Z,97867.08
2018-08-25T17:26:39.569Z,97868.10
2018-08-25T17:29:08.229Z,97867.89
2018-08-25T17:31:37.023Z,97874.64
2018-08-25T17:34:05.642Z,97878.95
2018-08-25T17:36:34.736Z,97874.16
2018-08-25T17:39:03.971Z,97882.77
2018-08-25T17:41:33.599Z,97881.87
2018-08-25T17:44:03.140Z,97887.14
2018-08-25T17:46:32.251Z,97884.57
2018-08-25T17:49:01.965Z,97888.28
2018-08-25T17:51:31.982Z,97894.91
2018-08-25T17:54:01.261Z,97895.53
2018-08-25T17:56:30.279Z,97895.84
2018-08-25T17:58:59.362Z,97902.45
2018-08-25T18:01:29.304Z,97894.72
2018-08-25T18:03:58.805Z,97891.53
2018-08-25T18:06:28.061Z,97893.44
2018-08-25T18:08:56.950Z,97903.18
2018-08-25T18:11:26.623Z,97901.66
2018-08-25T18:13:55.754Z,97912.67
2018-08-25T18:16:25.746Z,97908.52
2018-08-25T18:18:54.575Z,97908.55
2018-08-25T18:21:23.719Z,97910.84
2018-08-25T18:23:52.808Z,97921.92
2018-08-25T18:26:22.094Z,97925.97
2018-08-25T18:28:51.444Z,97924.88
2018-08-25T18:31:20.485Z,97925.93
2018-08-25T18:33:50.025Z,97929.31
2018-08-25T18:36:19.113Z,97934.83
2018-08-25T18:38:48.028Z,97937.22
2018-08-25T18:41:16.821Z,97948.88
2018-08-25T18:43:47.268Z,97947.59
2018-08-25T18:46:16.889Z,97945.80
2018-08-25T18:48:46.095Z,97953.47
2018-08-25T18:51:15.029Z,97960.00
2018-08-25T18:53:44.243Z,97956.19
2018-08-25T18:56:13.808Z,97962.39
2018-08-25T18:58:42.894Z,97963.67
2018-08-25T19:01:13.845Z,97967.50
2018-08-25T19:03:43.225Z,97968.34
2018-08-25T19:06:12.236Z,97969.33
2018-08-25T19:08:41.526Z,97973.45
2018-08-25T19:11:10.716Z,97977.55
2018-08-25T19:13:40.411Z,97983.73
2018-08-25T19:16:09.394Z,97985.12
2018-08-25T19:18:38.710Z,97989.34
2018-08-25T19:21:08.360Z,97995.32
2018-08-25T19:23:37.523Z,97999.81
2018-08-25T19:26:07.379Z,98000.62
2018-08-25T19:28:37.756Z,98000.94
2018-08-25T19:31:06.896Z,98004.95
2018-08-25T19:33:36.202Z,98008.23
2018-08-25T19:36:05.875Z,98007.38
2018-08-25T19:38:35.720Z,98015.02
2018-08-25T19:41:04.934Z,98017.61
2018-08-25T19:43:34.916Z,98015.77
2018-08-25T19:46:04.711Z,98019.83
2018-08-25T19:48:34.786Z,98017.50
2018-08-25T19:51:04.506Z,98021.09
2018-08-25T19:53:33.759Z,98024.79
2018-08-25T19:56:04.969Z,98026.04
2018-08-25T19:58:34.317Z,98026.54
2018-08-25T20:01:03.570Z,98028.59
2018-08-25T20:03:32.479Z,98027.04
2018-08-25T20:06:01.991Z,98031.48
2018-08-25T20:08:31.263Z,98024.48
2018-08-25T20:11:00.061Z,98026.06
2018-08-25T20:13:29.125Z,98021.39
2018-08-25T20:15:58.519Z,98024.05
2018-08-25T20:18:27.784Z,98021.67
2018-08-25T20:20:57.828Z,98019.24
2018-08-25T20:23:27.025Z,98026.65
2018-08-25T20:25:56.267Z,98015.80
2018-08-25T20:28:26.601Z,98025.75
2018-08-25T20:30:55.899Z,98031.92
2018-08-25T20:33:27.140Z,98039.39
2018-08-25T20:35:56.544Z,98045.53
2018-08-25T20:38:25.331Z,98038.49
2018-08-25T20:40:55.860Z,98043.55
2018-08-25T20:43:25.643Z,98040.71
2018-08-25T20:45:54.618Z,98047.12
2018-08-25T20:48:24.796Z,98048.23
2018-08-25T20:50:54.735Z,98057.30
2018-08-25T20:53:23.605Z,98054.33
2018-08-25T20:55:53.761Z,98061.45
2018-08-25T20:58:24.175Z,98061.63
2018-08-25T21:00:53.566Z,98062.98
2018-08-25T21:03:22.771Z,98065.77
2018-08-25T21:05:52.655Z,98062.65
2018-08-25T21:08:22.061Z,98062.23
2018-08-25T21:10:51.367Z,98073.80
2018-08-25T21:13:20.557Z,98075.58
2018-08-25T21:15:49.650Z,98073.09
2018-08-25T21:18:20.740Z,98077.81
2018-08-25T21:20:50.061Z,98083.83
2018-08-25T21:23:19.359Z,98079.58
2018-08-25T21:25:49.619Z,98084.72
2018-08-25T21:28:20.316Z,98087.83
2018-08-25T21:30:49.776Z,98088.20
2018-08-25T21:33:19.025Z,98089.69
2018-08-25T21:35:49.089Z,98091.92
2018-08-25T21:38:18.329Z,98093.03
2018-08-25T21:40:47.869Z,98103.94
2018-08-25T21:43:17.019Z,98101.27
2018-08-25T21:45:48.064Z,98105.08
2018-08-25T21:48:17.346Z,98092.92
2018-08-25T21:50:47.222Z,98103.82
2018-08-25T21:53:16.717Z,98098.99
2018-08-25T21:55:47.316Z,98103.58
2018-08-25T21:58:17.143Z,98107.12
2018-08-25T22:00:51.174Z,98102.59
2018-08-25T22:03:19.941Z,98107.99
2018-08-25T22:05:49.710Z,98106.95
2018-08-25T22:08:18.796Z,98106.77
2018-08-25T22:10:47.659Z,98105.63
2018-08-25T22:13:18.057Z,98106.08
2018-08-25T22:15:48.533Z,98116.18
2018-08-25T22:18:17.596Z,98110.45
2018-08-25T22:20:47.980Z,98117.66
2018-08-25T22:23:17.352Z,98113.61
2018-08-25T22:25:46.121Z,98120.38
2018-08-25T22:28:15.460Z,98111.53
2018-08-25T22:30:44.829Z,98112.13
2018-08-25T22:33:13.595Z,98114.05
2018-08-25T22:35:42.117Z,98116.45
2018-08-25T22:38:11.049Z,98110.78
2018-08-25T22:40:40.505Z,98117.77
2018-08-25T22:43:09.280Z,98118.31
2018-08-25T22:45:38.055Z,98120.59
2018-08-25T22:48:06.734Z,98115.73
2018-08-25T22:50:36.589Z,98124.91
2018-08-25T22:53:05.416Z,98123.12
2018-08-25T22:55:34.089Z,98123.54
2018-08-25T22:58:02.819Z,98127.09
2018-08-25T23:00:32.362Z,98127.94
2018-08-25T23:03:01.231Z,98129.33
2018-08-25T23:05:30.815Z,98128.84
2018-08-25T23:07:59.706Z,98133.97
2018-08-25T23:10:30.578Z,98136.38
2018-08-25T23:12:59.476Z,98143.56
2018-08-25T23:15:28.426Z,98138.08
2018-08-25T23:17:57.111Z,98137.70
2018-08-25T23:20:25.866Z,98141.42
2018-08-25T23:22:54.531Z,98137.34
2018-08-25T23:25:23.275Z,98135.45
2018-08-25T23:27:51.953Z,98129.55
2018-08-25T23:30:21.870Z,98140.08
2018-08-25T23:32:50.500Z,98138.97
2018-08-25T23:35:19.455Z,98142.77
2018-08-25T23:37:49.174Z,98143.75
2018-08-25T23:40:18.789Z,98142.77
2018-08-25T23:42:47.400Z,98142.06
2018-08-25T23:45:16.398Z,98143.19
2018-08-25T23:47:44.995Z,98144.27
2018-08-25T23:50:13.664Z,98142.48
2018-08-25T23:52:42.227Z,98142.84
2018-08-25T23:55:10.983Z,98148.25
2018-08-25T23:57:40.610Z,98145.62
